Loretto, VA (22509)

7:12 AM EDT on August 22, 2014 (GMT -0400)
Oak Grove | Change Station
CLOSE
Current Station
Personal Weather Station
Location: Colonial Beach, VA
Elevation: 10 ft
Nearby Weather Stations

Elev 10 ft 38.20 °N, 77.00 °W | Updated 3 seconds ago

Mist
Mist
73.3 °F
Feels Like 71 °F
N
0.0
Wind Variable Wind from NNW
Gusts 0.0 mph

Today
High -- | Low -- °F
--% Chance of Precip.
Yesterday
High -- | Low -- °F
Precip. -- in
6:29 AM 7:51 PM
Waning Crescent, 9% visible
Pressure 29.98 in
Visibility 1.8 miles
Clouds
Heat Index 71 °F
Dew Point 70 °F
Humidity 89%
Rainfall 0.00 in
Snow Depth Not available.
UV 0.0 out of 12
Pollen 9.30 out of 12
Air Quality Not available.
Flu Activity Not available.
METAR KXSA 221055Z AUTO 00000KT 1 3/4SM BR VV007 21/19 A2998 RMK AO2 T02050190

More Conditions Fewer Conditions

Pressure 29.98 in
Visibility 1.8 miles
Clouds
Heat Index 71 °F
Dew Point 70 °F
Humidity 89%
Rainfall 0.00 in
Snow Depth Not available.
UV 0.0 out of 12
Pollen 9.30 out of 12
Air Quality Not available.
Flu Activity Not available.
METAR KXSA 221055Z AUTO 00000KT 1 3/4SM BR VV007 21/19 A2998 RMK AO2 T02050190

More Conditions Fewer Conditions

10-Day Weather Forecast

Almanac

Astronomy

Aug. 22, 2014 Rise Set
Actual Time 6:29 AM EDT 7:51 PM EDT
Civil Twilight 6:01 AM EDT 8:19 PM EDT
Nautical Twilight 5:28 AM EDT 8:52 PM EDT
Astronomical Twilight 4:53 AM EDT 9:26 PM EDT
Moon 3:51 AM EDT 5:58 PM EDT
Length of Visible Light 14h 17m
Length of Day
13h 22m
Tomorrow will be 2m 16s shorter.
Waning Crescent, 9% of the Moon is Illuminated
Today
Waning Crescent
Aug 25
New
Sep 2
First Quarter
Sep 8
Full
Sep 15
Last Quarter

Today's Extremes

State Highs State Lows

Community

WunderPhotos

Upload Photos

1,746,150 photos uploaded!

WunderBlogs® & News

By Dr. Jeff Masters
Director of Meteorology, Weather Underground
By Kari Strenfel
Meteorologist, Weather Underground
By Christopher C. Burt
Weather Historian, Weather Underground
August 22, 2014
August 22, 2014
August 22, 2014

Nearby

Snow Depth

Station Depth Elevation
No new snow has been reported.

Earthquake Activity

City Distance Mag. Time & Date
No recent earthquake activity has been reported nearby.
Minimum magnitude displayed is 2.5.

Coastal Water Temperatures

Place Temperature
Washington, DC 79.0 °F
Lewisetta, VA 81.0 °F
Solomons Island, MD 80.1 °F

Nearby Weather Stations